createdAt,value
2024-05-09T00:00:35.291Z,53.04
2024-05-09T00:03:05.555Z,55.67
2024-05-09T00:05:32.573Z,58.76
2024-05-09T00:07:59.659Z,54.09
2024-05-09T00:10:35.013Z,54.89
2024-05-09T00:13:04.612Z,54.27
2024-05-09T00:15:31.626Z,55.22
2024-05-09T00:17:58.743Z,54.03
2024-05-09T00:20:33.666Z,54.34
2024-05-09T00:23:05.525Z,53.21
2024-05-09T00:25:32.497Z,57.29
2024-05-09T00:27:59.432Z,59.87
2024-05-09T00:30:33.448Z,54.48
2024-05-09T00:33:03.649Z,55.15
2024-05-09T00:35:31.115Z,53.80
2024-05-09T00:37:58.152Z,55.71
2024-05-09T00:40:35.117Z,53.63
2024-05-09T00:43:06.283Z,59.12
2024-05-09T00:45:33.271Z,54.83
2024-05-09T00:48:00.641Z,55.39
2024-05-09T00:50:35.547Z,54.31
2024-05-09T00:53:04.311Z,52.88
2024-05-09T00:55:31.260Z,53.62
2024-05-09T00:57:58.191Z,54.36
2024-05-09T01:00:31.679Z,54.91
2024-05-09T01:03:05.795Z,60.00
2024-05-09T01:05:33.203Z,53.94
2024-05-09T01:08:00.238Z,55.31
2024-05-09T01:10:33.727Z,56.37
2024-05-09T01:13:02.234Z,54.46
2024-05-09T01:15:29.165Z,53.21
2024-05-09T01:17:56.542Z,54.10
2024-05-09T01:20:32.253Z,53.98
2024-05-09T01:23:07.400Z,59.29
2024-05-09T01:25:34.538Z,53.88
2024-05-09T01:28:01.449Z,52.89
2024-05-09T01:30:34.369Z,55.56
2024-05-09T01:33:04.192Z,58.78
2024-05-09T01:35:31.559Z,52.76
2024-05-09T01:37:58.612Z,53.45
2024-05-09T01:40:35.507Z,53.52
2024-05-09T01:43:05.361Z,53.77
2024-05-09T01:45:32.311Z,52.76
2024-05-09T01:47:59.783Z,53.62
2024-05-09T01:50:37.402Z,54.12
2024-05-09T01:53:07.942Z,54.00
2024-05-09T01:55:34.979Z,55.77
2024-05-09T01:58:01.927Z,53.04
2024-05-09T02:00:36.161Z,58.76
2024-05-09T02:03:06.986Z,54.87
2024-05-09T02:05:34.206Z,53.93
2024-05-09T02:08:01.337Z,56.51
2024-05-09T02:10:32.534Z,52.60
2024-05-09T02:13:00.285Z,52.67
2024-05-09T02:15:27.206Z,51.83
2024-05-09T02:17:54.501Z,53.26
2024-05-09T02:22:51.505Z,54.35
2024-05-09T02:25:18.622Z,54.65
2024-05-09T02:27:45.566Z,54.71
2024-05-09T02:30:18.669Z,53.75
2024-05-09T02:32:53.120Z,54.41
2024-05-09T02:35:20.309Z,55.04
2024-05-09T02:37:47.369Z,55.04
2024-05-09T02:40:14.973Z,55.62
2024-05-09T02:42:45.160Z,56.21
2024-05-09T02:45:12.085Z,56.02
2024-05-09T02:47:39.089Z,55.75
2024-05-09T02:50:08.037Z,55.55
2024-05-09T02:52:35.278Z,55.91
2024-05-09T02:55:02.225Z,55.67
2024-05-09T02:57:29.188Z,56.04
2024-05-09T02:59:56.129Z,56.20
2024-05-09T03:02:23.183Z,55.20
2024-05-09T03:04:50.220Z,59.46
2024-05-09T03:07:19.750Z,56.08
2024-05-09T03:09:47.051Z,58.00
2024-05-09T03:12:14.130Z,55.87
2024-05-09T03:14:41.187Z,55.28
2024-05-09T03:17:08.237Z,54.97
2024-05-09T03:19:35.295Z,57.38
2024-05-09T03:22:02.320Z,55.51
2024-05-09T03:24:29.307Z,55.12
2024-05-09T03:26:56.252Z,55.00
2024-05-09T03:29:23.219Z,55.48
2024-05-09T03:31:50.393Z,55.46
2024-05-09T03:34:17.420Z,54.89
2024-05-09T03:36:44.354Z,54.56
2024-05-09T03:39:11.302Z,54.45
2024-05-09T03:41:38.251Z,54.86
2024-05-09T03:44:05.259Z,54.75
2024-05-09T03:46:32.234Z,54.42
2024-05-09T03:48:59.267Z,54.39
2024-05-09T03:51:26.232Z,54.29
2024-05-09T03:53:53.204Z,54.34
2024-05-09T03:56:20.199Z,54.21
2024-05-09T03:58:47.239Z,54.78
2024-05-09T04:01:14.245Z,56.31
2024-05-09T04:03:41.357Z,64.34
2024-05-09T04:06:08.396Z,58.83
2024-05-09T04:08:35.864Z,55.76
2024-05-09T04:11:02.985Z,56.32
2024-05-09T04:13:29.978Z,57.68
2024-05-09T04:15:56.933Z,54.49
2024-05-09T04:18:23.981Z,53.39
2024-05-09T04:20:51.129Z,56.73
2024-05-09T04:23:18.206Z,54.10
2024-05-09T04:25:45.807Z,53.51
2024-05-09T04:28:12.974Z,54.66
2024-05-09T04:30:41.512Z,53.72
2024-05-09T04:33:11.318Z,54.22
2024-05-09T04:35:39.950Z,54.06
2024-05-09T04:38:06.835Z,56.76
2024-05-09T04:40:36.191Z,54.51
2024-05-09T04:43:03.994Z,54.40
2024-05-09T04:45:30.693Z,54.15
2024-05-09T04:47:57.514Z,53.84
2024-05-09T04:50:33.604Z,54.15
2024-05-09T04:53:04.229Z,56.02
2024-05-09T04:55:30.896Z,59.46
2024-05-09T04:57:57.648Z,55.00
2024-05-09T05:00:32.517Z,53.94
2024-05-09T05:03:03.383Z,53.55
2024-05-09T05:05:30.202Z,56.90
2024-05-09T05:07:56.814Z,53.70
2024-05-09T05:10:29.594Z,54.36
2024-05-09T05:13:02.106Z,53.00
2024-05-09T05:15:28.656Z,54.02
2024-05-09T05:17:55.335Z,52.46
2024-05-09T05:20:30.589Z,53.21
2024-05-09T05:22:59.887Z,53.17
2024-05-09T05:25:26.479Z,52.09
2024-05-09T05:27:53.027Z,57.81
2024-05-09T05:30:25.071Z,53.35
2024-05-09T05:32:56.022Z,54.21
2024-05-09T05:35:23.228Z,59.89
2024-05-09T05:37:50.277Z,57.72
2024-05-09T05:40:27.597Z,57.11
2024-05-09T05:43:00.022Z,55.14
2024-05-09T05:45:26.963Z,54.76
2024-05-09T05:47:54.070Z,53.97
2024-05-09T05:50:27.762Z,54.48
2024-05-09T05:53:01.799Z,54.74
2024-05-09T05:55:28.842Z,55.34
2024-05-09T05:57:55.800Z,56.18
2024-05-09T06:00:29.759Z,57.35
2024-05-09T06:03:04.370Z,52.17
2024-05-09T06:05:31.547Z,53.62
2024-05-09T06:07:58.667Z,54.25
2024-05-09T06:10:30.400Z,53.33
2024-05-09T06:13:04.567Z,52.21
2024-05-09T06:15:31.499Z,51.19
2024-05-09T06:17:59.018Z,52.79
2024-05-09T06:20:34.744Z,52.16
2024-05-09T06:23:04.397Z,50.79
2024-05-09T06:25:31.696Z,50.11
2024-05-09T06:27:58.685Z,51.81
2024-05-09T06:30:30.968Z,50.90
2024-05-09T06:33:05.825Z,52.83
2024-05-09T06:35:33.432Z,50.54
2024-05-09T06:38:00.622Z,50.63
2024-05-09T06:40:36.242Z,51.18
2024-05-09T06:43:05.868Z,51.28
2024-05-09T06:45:32.831Z,51.98
2024-05-09T06:48:00.047Z,50.67
2024-05-09T06:50:31.116Z,50.06
2024-05-09T06:53:02.795Z,48.66
2024-05-09T06:55:29.884Z,50.32
2024-05-09T06:57:56.847Z,47.73
2024-05-09T07:00:30.739Z,48.07
2024-05-09T07:03:05.975Z,46.93
2024-05-09T07:05:33.227Z,48.27
2024-05-09T07:08:00.339Z,48.64
2024-05-09T07:10:33.040Z,49.65
2024-05-09T07:13:02.330Z,48.87
2024-05-09T07:15:29.363Z,47.53
2024-05-09T07:17:56.672Z,48.32
2024-05-09T07:20:32.257Z,48.38
2024-05-09T07:23:01.935Z,48.95
2024-05-09T07:25:28.749Z,49.59
2024-05-09T07:27:55.410Z,48.71
2024-05-09T07:30:27.591Z,48.13
2024-05-09T07:32:59.877Z,47.40
2024-05-09T07:35:26.844Z,47.64
2024-05-09T07:37:53.693Z,46.80
2024-05-09T07:42:49.809Z,47.24
2024-05-09T07:45:39.009Z,48.59
2024-05-09T07:52:22.948Z,47.06
2024-05-09T07:53:38.358Z,46.28
2024-05-09T07:56:05.622Z,48.07
2024-05-09T07:58:32.280Z,48.82
2024-05-09T08:00:58.977Z,47.66
2024-05-09T08:03:25.717Z,48.11
2024-05-09T08:05:52.399Z,47.84
2024-05-09T08:08:18.986Z,47.41
2024-05-09T08:10:45.698Z,46.24
2024-05-09T08:13:12.485Z,47.03
2024-05-09T08:15:39.280Z,47.02
2024-05-09T08:18:06.022Z,46.04
2024-05-09T08:20:35.274Z,45.63
2024-05-09T08:23:02.612Z,46.54
2024-05-09T08:25:29.575Z,46.94
2024-05-09T08:27:56.576Z,47.60
2024-05-09T08:30:30.145Z,47.47
2024-05-09T08:33:03.064Z,46.92
2024-05-09T08:35:29.703Z,46.23
2024-05-09T08:37:56.424Z,46.80
2024-05-09T08:40:30.718Z,47.34
2024-05-09T08:43:01.669Z,49.36
2024-05-09T08:45:28.320Z,49.30
2024-05-09T08:47:55.096Z,47.34
2024-05-09T08:50:31.569Z,46.69
2024-05-09T08:53:04.284Z,46.04
2024-05-09T08:55:30.839Z,46.91
2024-05-09T08:57:57.422Z,47.64
2024-05-09T09:00:33.736Z,49.69
2024-05-09T09:03:03.718Z,47.16
2024-05-09T09:05:30.471Z,48.51
2024-05-09T09:07:57.121Z,47.99
2024-05-09T09:10:29.822Z,46.36
2024-05-09T09:12:58.911Z,44.68
2024-05-09T09:15:25.508Z,45.27
2024-05-09T09:17:52.197Z,44.36
2024-05-09T09:20:25.971Z,44.70
2024-05-09T09:22:55.917Z,45.14
2024-05-09T09:25:22.495Z,44.16
2024-05-09T09:27:49.053Z,44.11
2024-05-09T09:30:27.832Z,46.10
2024-05-09T09:33:02.531Z,47.06
2024-05-09T09:35:29.615Z,48.03
2024-05-09T09:37:56.551Z,46.02
2024-05-09T09:40:31.007Z,44.88
2024-05-09T09:42:59.598Z,46.04
2024-05-09T09:45:26.629Z,45.49
2024-05-09T09:47:53.765Z,45.75
2024-05-09T09:50:27.574Z,44.93
2024-05-09T09:53:00.522Z,45.42
2024-05-09T09:55:27.559Z,44.87
2024-05-09T09:57:54.571Z,44.47
2024-05-09T10:00:27.124Z,44.48
2024-05-09T10:02:59.362Z,43.65
2024-05-09T10:05:26.566Z,43.38
2024-05-09T10:07:53.954Z,44.42
2024-05-09T10:10:27.319Z,43.94
2024-05-09T10:12:58.974Z,45.32
2024-05-09T10:15:25.955Z,45.95
2024-05-09T10:17:53.151Z,46.50
2024-05-09T10:20:22.220Z,46.79
2024-05-09T10:22:54.624Z,47.77
2024-05-09T10:25:21.723Z,47.00
2024-05-09T10:27:48.867Z,47.49
2024-05-09T10:30:21.670Z,46.94
2024-05-09T10:32:56.492Z,48.60
2024-05-09T10:35:23.568Z,47.84
2024-05-09T10:37:50.488Z,49.63
2024-05-09T10:40:25.734Z,47.09
2024-05-09T10:42:56.336Z,48.01
2024-05-09T10:45:23.443Z,48.23
2024-05-09T10:47:50.546Z,48.41
2024-05-09T10:50:25.073Z,48.06
2024-05-09T10:52:55.567Z,46.05
2024-05-09T10:55:22.707Z,45.60
2024-05-09T10:57:49.925Z,44.04
2024-05-09T11:00:27.031Z,45.42
2024-05-09T11:02:57.536Z,44.79
2024-05-09T11:05:24.698Z,45.13
2024-05-09T11:07:51.742Z,44.38
2024-05-09T11:10:27.110Z,44.68
2024-05-09T11:12:58.862Z,43.78
2024-05-09T11:15:25.906Z,44.49
2024-05-09T11:17:53.116Z,44.70
2024-05-09T11:20:26.869Z,44.76
2024-05-09T11:22:56.777Z,44.78
2024-05-09T11:25:23.875Z,44.57
2024-05-09T11:27:50.540Z,44.63
2024-05-09T11:30:24.207Z,44.17
2024-05-09T11:32:56.665Z,44.87
2024-05-09T11:35:23.394Z,44.45
2024-05-09T11:37:49.941Z,44.09
2024-05-09T11:40:21.554Z,43.33
2024-05-09T11:42:53.426Z,42.34
2024-05-09T11:45:20.195Z,41.78
2024-05-09T11:47:46.877Z,41.81
2024-05-09T11:50:22.342Z,42.08
2024-05-09T11:52:53.818Z,42.19
2024-05-09T11:55:20.849Z,41.39
2024-05-09T11:57:48.182Z,41.46
2024-05-09T12:00:18.278Z,41.47
2024-05-09T12:02:51.883Z,41.03
2024-05-09T12:05:18.618Z,40.88
2024-05-09T12:07:45.270Z,40.60
2024-05-09T12:10:16.660Z,41.62
2024-05-09T12:12:46.084Z,41.07
2024-05-09T12:15:12.694Z,40.98
2024-05-09T12:17:39.327Z,40.59
2024-05-09T12:20:11.319Z,40.75
2024-05-09T12:22:43.720Z,39.85
2024-05-09T12:25:10.393Z,39.95
2024-05-09T12:27:37.507Z,40.40
2024-05-09T12:30:05.807Z,40.29
2024-05-09T12:32:34.237Z,40.84
2024-05-09T12:35:01.214Z,39.50
2024-05-09T12:37:28.167Z,38.02
2024-05-09T12:39:55.143Z,38.32
2024-05-09T12:42:27.287Z,38.98
2024-05-09T12:44:55.550Z,38.72
2024-05-09T12:47:22.603Z,38.54
2024-05-09T12:49:49.708Z,38.21
2024-05-09T12:52:16.803Z,37.48
2024-05-09T12:54:43.811Z,36.77
2024-05-09T12:57:10.778Z,34.57
2024-05-09T12:59:37.728Z,33.66
2024-05-09T13:02:04.877Z,33.61
2024-05-09T13:04:32.230Z,33.61
2024-05-09T13:06:59.296Z,33.70
2024-05-09T13:09:26.246Z,33.56
2024-05-09T13:11:53.256Z,35.00
2024-05-09T13:14:20.200Z,33.58
2024-05-09T13:16:47.145Z,33.64
2024-05-09T13:19:14.161Z,33.83
2024-05-09T13:21:41.156Z,33.10
2024-05-09T13:24:08.161Z,33.46
2024-05-09T13:26:35.101Z,33.08
2024-05-09T13:29:02.025Z,31.68
2024-05-09T13:31:29.054Z,33.80
2024-05-09T13:33:56.126Z,32.68
2024-05-09T13:36:23.161Z,29.60
2024-05-09T13:38:49.731Z,27.72
2024-05-09T13:41:16.300Z,28.11
2024-05-09T13:43:42.858Z,28.17
2024-05-09T13:46:09.514Z,27.27
2024-05-09T13:48:36.161Z,27.44
2024-05-09T13:51:02.765Z,28.99
2024-05-09T13:53:29.346Z,27.18
2024-05-09T13:55:56.021Z,25.90
2024-05-09T13:58:22.734Z,29.42
2024-05-09T14:00:49.809Z,27.76
2024-05-09T14:03:17.658Z,25.90
2024-05-09T14:05:46.044Z,25.62
2024-05-09T14:08:12.688Z,24.48
2024-05-09T14:10:39.362Z,25.29
2024-05-09T14:13:05.970Z,27.54
2024-05-09T14:15:32.645Z,26.01
2024-05-09T14:17:59.325Z,25.16
2024-05-09T14:20:31.155Z,23.84
2024-05-09T14:22:58.956Z,23.65
2024-05-09T14:25:25.568Z,23.51
2024-05-09T14:27:52.211Z,23.14
2024-05-09T14:30:26.385Z,22.25
2024-05-09T14:33:00.945Z,25.03
2024-05-09T14:35:27.658Z,23.53
2024-05-09T14:37:54.708Z,22.63
2024-05-09T14:40:31.164Z,23.50
2024-05-09T14:43:06.773Z,26.79
2024-05-09T14:45:33.861Z,24.57
2024-05-09T14:48:01.146Z,22.78
2024-05-09T14:50:35.133Z,21.89
2024-05-09T14:53:05.341Z,21.62
2024-05-09T14:55:32.363Z,21.31
2024-05-09T14:57:59.383Z,21.67
2024-05-09T15:00:33.017Z,23.51
2024-05-09T15:03:03.074Z,23.63
2024-05-09T15:05:30.396Z,22.02
2024-05-09T15:07:57.470Z,20.54
2024-05-09T15:10:33.366Z,20.85
2024-05-09T15:13:02.905Z,21.20
2024-05-09T15:15:29.949Z,21.31
2024-05-09T15:17:56.782Z,21.16
2024-05-09T15:20:31.048Z,20.77
2024-05-09T15:23:01.962Z,21.17
2024-05-09T15:25:28.743Z,20.84
2024-05-09T15:27:55.574Z,21.93
2024-05-09T15:30:29.587Z,22.22
2024-05-09T15:32:58.504Z,21.67
2024-05-09T15:35:25.112Z,21.13
2024-05-09T15:37:51.668Z,20.76
2024-05-09T15:40:25.940Z,19.92
2024-05-09T15:43:01.669Z,20.17
2024-05-09T15:45:28.320Z,21.72
2024-05-09T15:47:54.977Z,19.98
2024-05-09T15:50:31.981Z,20.94
2024-05-09T15:53:03.928Z,21.58
2024-05-09T15:55:30.477Z,20.44
2024-05-09T15:57:57.130Z,20.39
2024-05-09T16:00:29.180Z,20.69
2024-05-09T16:03:03.320Z,22.11
2024-05-09T16:05:30.005Z,21.75
2024-05-09T16:07:56.663Z,22.15
2024-05-09T16:10:26.264Z,21.88
2024-05-09T16:12:58.793Z,22.29
2024-05-09T16:15:25.756Z,22.28
2024-05-09T16:17:52.720Z,21.52
2024-05-09T16:20:33.148Z,21.70
2024-05-09T16:23:05.396Z,21.82
2024-05-09T16:25:32.370Z,22.99
2024-05-09T16:27:59.380Z,26.16
2024-05-09T16:30:33.728Z,28.05
2024-05-09T16:33:02.909Z,29.88
2024-05-09T16:35:30.252Z,31.67
2024-05-09T16:37:57.453Z,32.18
2024-05-09T16:40:34.346Z,33.25
2024-05-09T16:43:06.136Z,33.56
2024-05-09T16:45:33.543Z,33.86
2024-05-09T16:48:01.001Z,34.31
2024-05-09T16:50:32.630Z,34.91
2024-05-09T16:53:01.465Z,34.84
2024-05-09T16:55:28.488Z,35.70
2024-05-09T16:57:55.623Z,35.47
2024-05-09T17:00:31.793Z,36.19
2024-05-09T17:03:07.183Z,35.78
2024-05-09T17:05:35.417Z,37.18
2024-05-09T17:08:02.900Z,36.57
2024-05-09T17:10:33.570Z,36.26
2024-05-09T17:13:02.482Z,36.84
2024-05-09T17:15:30.033Z,37.13
2024-05-09T17:17:57.190Z,36.96
2024-05-09T17:20:31.754Z,37.23
2024-05-09T17:23:02.088Z,37.97
2024-05-09T17:25:29.148Z,37.93
2024-05-09T17:27:56.231Z,38.54
2024-05-09T17:30:29.382Z,38.06
2024-05-09T17:33:02.548Z,38.84
2024-05-09T17:35:29.649Z,39.00
2024-05-09T17:37:56.698Z,38.14
2024-05-09T17:40:31.136Z,39.13
2024-05-09T17:43:02.323Z,39.08
2024-05-09T17:45:29.644Z,39.02
2024-05-09T17:47:56.900Z,39.21
2024-05-09T17:50:30.842Z,39.24
2024-05-09T17:53:02.272Z,39.71
2024-05-09T17:55:29.583Z,39.30
2024-05-09T17:57:56.944Z,38.96
2024-05-09T18:00:36.190Z,38.72
2024-05-09T18:03:06.952Z,39.38
2024-05-09T18:05:34.307Z,39.14
2024-05-09T18:08:01.614Z,39.35
2024-05-09T18:10:35.346Z,38.75
2024-05-09T18:13:06.144Z,39.73
2024-05-09T18:15:33.654Z,39.70
2024-05-09T18:18:00.941Z,39.74
2024-05-09T18:20:37.032Z,39.71
2024-05-09T18:23:09.549Z,40.01
2024-05-09T18:25:36.505Z,39.25
2024-05-09T18:28:03.561Z,39.17
2024-05-09T18:30:34.990Z,39.53
2024-05-09T18:33:04.133Z,39.97
2024-05-09T18:35:31.537Z,40.02
2024-05-09T18:37:58.480Z,41.14
2024-05-09T18:40:32.623Z,40.95
2024-05-09T18:43:03.099Z,41.44
2024-05-09T18:45:30.862Z,41.07
2024-05-09T18:47:58.227Z,41.25
2024-05-09T18:50:34.218Z,41.26
2024-05-09T18:53:04.734Z,41.45
2024-05-09T18:55:31.687Z,40.77
2024-05-09T18:57:58.677Z,41.11
2024-05-09T19:00:33.871Z,40.44
2024-05-09T19:03:04.669Z,41.24
2024-05-09T19:05:32.470Z,40.36
2024-05-09T19:07:59.621Z,41.58
2024-05-09T19:10:33.600Z,41.37
2024-05-09T19:13:05.421Z,41.83
2024-05-09T19:15:36.012Z,43.85
2024-05-09T19:18:03.150Z,42.91
2024-05-09T19:20:34.445Z,43.15
2024-05-09T19:23:03.087Z,43.01
2024-05-09T19:25:30.134Z,43.27
2024-05-09T19:27:57.204Z,43.26
2024-05-09T19:30:32.931Z,43.98
2024-05-09T19:33:05.383Z,43.85
2024-05-09T19:35:32.556Z,44.05
2024-05-09T19:37:59.568Z,44.00
2024-05-09T19:40:31.408Z,44.38
2024-05-09T19:43:00.516Z,44.09
2024-05-09T19:45:27.607Z,44.02
2024-05-09T19:47:54.741Z,44.57
2024-05-09T19:50:30.262Z,44.97
2024-05-09T19:53:03.370Z,44.90
2024-05-09T19:55:30.280Z,44.89
2024-05-09T19:57:57.814Z,45.17
2024-05-09T20:00:32.570Z,44.61
2024-05-09T20:03:03.072Z,44.83
2024-05-09T20:05:30.301Z,46.06
2024-05-09T20:07:57.439Z,46.07
2024-05-09T20:10:29.842Z,45.68
2024-05-09T20:12:59.965Z,46.19
2024-05-09T20:15:27.191Z,46.42
2024-05-09T20:17:54.667Z,46.31
2024-05-09T20:20:32.212Z,45.97
2024-05-09T20:23:04.230Z,46.39
2024-05-09T20:25:31.197Z,46.63
2024-05-09T20:27:58.176Z,45.49
2024-05-09T20:30:31.465Z,44.84
2024-05-09T20:33:00.641Z,45.03
2024-05-09T20:35:27.814Z,44.86
2024-05-09T20:37:54.723Z,45.61
2024-05-09T20:40:28.900Z,44.58
2024-05-09T20:43:00.121Z,45.11
2024-05-09T20:45:27.245Z,44.58
2024-05-09T20:47:54.363Z,44.68
2024-05-09T20:50:29.050Z,45.15
2024-05-09T20:53:03.862Z,44.18
2024-05-09T20:55:30.872Z,43.27
2024-05-09T20:57:57.948Z,43.99
2024-05-09T21:00:34.550Z,42.81
2024-05-09T21:03:07.019Z,44.04
2024-05-09T21:05:34.991Z,44.36
2024-05-09T21:08:02.789Z,45.22
2024-05-09T21:10:32.592Z,43.49
2024-05-09T21:13:00.996Z,43.69
2024-05-09T21:15:28.078Z,42.85
2024-05-09T21:17:55.231Z,44.27
2024-05-09T21:20:28.615Z,42.99
2024-05-09T21:22:58.138Z,43.36
2024-05-09T21:25:25.145Z,42.52
2024-05-09T21:27:52.280Z,42.29
2024-05-09T21:30:31.190Z,44.73
2024-05-09T21:33:06.009Z,42.26
2024-05-09T21:35:33.089Z,43.50
2024-05-09T21:38:00.059Z,44.61
2024-05-09T21:40:33.817Z,44.65
2024-05-09T21:43:02.916Z,43.98
2024-05-09T21:45:29.966Z,46.11
2024-05-09T21:47:57.016Z,45.43
2024-05-09T21:50:31.880Z,44.20
2024-05-09T21:53:05.908Z,44.48
2024-05-09T21:55:32.927Z,44.42
2024-05-09T21:57:59.944Z,44.63
2024-05-09T22:00:34.694Z,44.13
2024-05-09T22:03:04.662Z,44.51
2024-05-09T22:05:31.964Z,44.74
2024-05-09T22:07:59.058Z,44.87
2024-05-09T22:10:30.891Z,44.45
2024-05-09T22:13:01.772Z,44.64
2024-05-09T22:15:28.955Z,46.29
2024-05-09T22:17:57.142Z,45.47
2024-05-09T22:20:33.118Z,46.32
2024-05-09T22:23:03.709Z,46.38
2024-05-09T22:25:31.471Z,46.08
2024-05-09T22:27:59.225Z,46.82
2024-05-09T22:30:34.427Z,45.20
2024-05-09T22:33:05.349Z,45.99
2024-05-09T22:35:32.533Z,46.18
2024-05-09T22:37:59.470Z,46.01
2024-05-09T22:40:38.159Z,46.29
2024-05-09T22:43:13.622Z,46.59
2024-05-09T22:45:40.812Z,46.22
2024-05-09T22:48:08.249Z,46.10
2024-05-09T22:50:36.420Z,47.03
2024-05-09T22:53:03.345Z,46.19
2024-05-09T22:55:30.292Z,46.14
2024-05-09T22:57:57.392Z,46.48
2024-05-09T23:02:54.334Z,46.82
2024-05-09T23:05:21.458Z,46.62
2024-05-09T23:07:48.517Z,46.65
2024-05-09T23:10:21.387Z,46.74
2024-05-09T23:12:55.114Z,46.38
2024-05-09T23:15:22.146Z,46.81
2024-05-09T23:17:49.174Z,46.92
2024-05-09T23:20:22.067Z,47.02
2024-05-09T23:22:56.931Z,46.64
2024-05-09T23:25:24.025Z,46.83
2024-05-09T23:27:51.019Z,47.19
2024-05-09T23:30:28.433Z,47.57
2024-05-09T23:33:01.645Z,47.88
2024-05-09T23:35:28.723Z,48.02
2024-05-09T23:37:55.750Z,48.52
2024-05-09T23:40:23.652Z,47.94
2024-05-09T23:42:53.705Z,47.82
2024-05-09T23:45:20.691Z,47.59
2024-05-09T23:47:47.732Z,48.22
2024-05-09T23:50:20.522Z,48.43
2024-05-09T23:52:50.997Z,47.76
2024-05-09T23:55:18.149Z,47.36
2024-05-09T23:57:45.325Z,47.43
